Time;durP1;ratioP1;P1;durP2;ratioP2;P2;SDS_P1;SDS_P2;PMS_P1;PMS_P2;Temp;Humidity;BMP_temperature;BMP_pressure;BME280_temperature;BME280_humidity;BME280_pressure;Samples;Min_cycle;Max_cycle;Signal;HPM_P1;HPM_P2
2020/12/09 00:01:14;;;;;;;0.75;0.75;;;2.80;99.90;;;;;;5049199;28;20220;-65
2020/12/09 00:03:40;;;;;;;0.35;0.35;;;2.80;99.90;;;;;;5034602;28;20659;-65
2020/12/09 00:06:06;;;;;;;0.80;0.80;;;2.70;99.90;;;;;;5041401;28;20186;-64
2020/12/09 00:08:32;;;;;;;0.30;0.30;;;2.80;99.90;;;;;;5035733;28;20174;-66
2020/12/09 00:10:59;;;;;;;0.30;0.30;;;2.70;99.90;;;;;;5037851;28;20205;-64
2020/12/09 00:13:24;;;;;;;0.30;0.30;;;2.70;99.90;;;;;;5035593;28;20178;-64
2020/12/09 00:15:50;;;;;;;0.30;0.30;;;2.70;99.90;;;;;;5051756;28;20636;-64
2020/12/09 00:18:16;;;;;;;0.30;0.30;;;2.60;99.90;;;;;;5035315;28;20174;-65
2020/12/09 00:20:42;;;;;;;0.30;0.30;;;2.50;99.90;;;;;;5049782;28;20170;-65
2020/12/09 00:23:07;;;;;;;0.30;0.30;;;2.50;99.90;;;;;;5047851;28;20267;-64
2020/12/09 00:25:33;;;;;;;0.40;0.40;;;2.50;99.90;;;;;;5037714;28;20787;-65
2020/12/09 00:27:59;;;;;;;0.30;0.30;;;2.50;99.90;;;;;;5035481;28;20220;-64
2020/12/09 00:30:24;;;;;;;0.50;0.50;;;2.50;99.90;;;;;;5045883;28;20193;-65
2020/12/09 00:32:50;;;;;;;0.90;0.90;;;2.50;99.90;;;;;;5051933;28;20201;-66
2020/12/09 00:35:16;;;;;;;0.63;0.63;;;2.50;99.90;;;;;;5044577;28;20177;-64
2020/12/09 00:37:42;;;;;;;0.50;0.50;;;2.50;99.90;;;;;;5043974;28;20231;-65
2020/12/09 00:40:08;;;;;;;0.30;0.30;;;2.50;99.90;;;;;;5035002;28;20170;-65
2020/12/09 00:42:34;;;;;;;0.30;0.30;;;2.50;99.90;;;;;;5034514;28;20268;-63
2020/12/09 00:45:00;;;;;;;0.52;0.52;;;2.50;99.90;;;;;;5041260;28;20544;-65
2020/12/09 00:47:26;;;;;;;0.30;0.30;;;2.50;99.90;;;;;;5034605;28;20170;-65
2020/12/09 00:52:40;;;;;;;0.30;0.30;;;2.50;99.90;;;;;;5041652;28;20730;-63
2020/12/09 00:55:07;;;;;;;0.30;0.30;;;2.40;99.90;;;;;;5041235;28;20537;-63
2020/12/09 00:57:32;;;;;;;0.30;0.30;;;2.50;99.90;;;;;;5054778;28;20173;-64
2020/12/09 00:59:58;;;;;;;0.90;0.90;;;2.50;99.90;;;;;;5047625;28;20200;-65
2020/12/09 01:02:24;;;;;;;0.50;0.50;;;2.50;99.90;;;;;;5034559;28;20328;-62
2020/12/09 01:04:50;;;;;;;0.30;0.30;;;2.50;99.90;;;;;;5039795;28;20185;-64
2020/12/09 01:07:19;;;;;;;0.40;0.40;;;2.50;99.90;;;;;;5046268;28;20456;-64
2020/12/09 01:09:46;;;;;;;0.50;0.50;;;2.50;99.90;;;;;;5038419;28;20578;-64
2020/12/09 01:12:12;;;;;;;0.40;0.40;;;2.50;99.90;;;;;;5052762;28;20233;-64
2020/12/09 01:14:39;;;;;;;1.53;1.43;;;2.40;99.90;;;;;;5032724;28;20193;-63
2020/12/09 01:17:05;;;;;;;2.15;2.05;;;2.40;99.90;;;;;;5034094;28;20482;-64
2020/12/09 01:19:31;;;;;;;0.40;0.40;;;2.40;99.90;;;;;;5036669;28;20182;-63
2020/12/09 01:21:56;;;;;;;0.30;0.30;;;2.50;99.90;;;;;;5053859;28;20212;-64
2020/12/09 01:24:22;;;;;;;0.30;0.30;;;2.50;99.90;;;;;;5039763;28;20652;-63
2020/12/09 01:26:48;;;;;;;0.30;0.30;;;2.50;99.90;;;;;;5034355;28;20167;-63
2020/12/09 01:29:14;;;;;;;1.50;1.40;;;2.50;99.90;;;;;;5034103;28;20215;-64
2020/12/09 01:31:42;;;;;;;0.50;0.50;;;2.50;99.90;;;;;;5050736;28;20622;-64
2020/12/09 01:34:08;;;;;;;0.30;0.30;;;2.50;99.90;;;;;;5033685;28;20232;-64
2020/12/09 01:36:34;;;;;;;0.40;0.40;;;2.50;99.90;;;;;;5034364;28;20584;-63
2020/12/09 01:38:59;;;;;;;0.40;0.40;;;2.50;99.90;;;;;;5034106;28;20178;-65
2020/12/09 01:41:25;;;;;;;0.30;0.30;;;2.50;99.90;;;;;;5039164;28;20272;-63
2020/12/09 01:43:53;;;;;;;0.50;0.50;;;2.50;99.90;;;;;;5033996;28;20173;-65
2020/12/09 01:46:29;;;;;;;0.30;0.30;;;2.50;99.90;;;;;;5051179;28;20178;-65
2020/12/09 01:48:56;;;;;;;0.30;0.30;;;2.50;99.90;;;;;;5038665;28;20224;-63
2020/12/09 01:51:26;;;;;;;0.30;0.30;;;2.50;99.90;;;;;;5051615;28;20254;-65
2020/12/09 01:53:52;;;;;;;0.80;0.80;;;2.50;99.90;;;;;;5037556;28;20193;-64
2020/12/09 01:56:18;;;;;;;1.20;1.15;;;2.60;99.90;;;;;;5033406;28;20174;-64
2020/12/09 01:58:44;;;;;;;0.30;0.30;;;2.60;99.90;;;;;;5047022;28;20674;-64
2020/12/09 02:01:10;;;;;;;1.60;1.53;;;2.60;99.90;;;;;;5053796;28;20193;-64
2020/12/09 02:03:36;;;;;;;2.47;2.30;;;2.60;99.90;;;;;;5040450;28;20644;-64
2020/12/09 02:06:03;;;;;;;0.52;0.52;;;2.60;99.90;;;;;;5041191;28;20428;-64
2020/12/09 02:08:29;;;;;;;0.40;0.40;;;2.60;99.90;;;;;;5039009;28;20193;-64
2020/12/09 02:11:02;;;;;;;1.02;1.02;;;2.60;99.90;;;;;;5039486;28;20193;-64
2020/12/09 02:13:29;;;;;;;1.08;0.98;;;2.60;99.90;;;;;;5042110;28;20232;-64
2020/12/09 02:15:59;;;;;;;1.83;1.05;;;2.60;99.90;;;;;;5033386;28;20502;-65
2020/12/09 02:18:25;;;;;;;0.35;0.35;;;2.60;99.90;;;;;;5033042;28;20525;-64
2020/12/09 02:20:51;;;;;;;0.70;0.70;;;2.60;99.90;;;;;;5032824;28;20185;-64
2020/12/09 02:23:17;;;;;;;0.50;0.50;;;2.70;99.90;;;;;;5032908;28;20703;-64
2020/12/09 02:25:42;;;;;;;0.60;0.60;;;2.80;99.90;;;;;;5032765;28;20197;-64
2020/12/09 02:28:08;;;;;;;1.00;1.00;;;2.90;99.90;;;;;;5033524;28;20514;-64
2020/12/09 02:30:34;;;;;;;0.40;0.40;;;2.80;99.90;;;;;;5034471;28;20451;-65
2020/12/09 02:33:00;;;;;;;0.30;0.30;;;2.70;99.90;;;;;;5033719;28;20954;-63
2020/12/09 02:35:26;;;;;;;0.30;0.30;;;2.70;99.90;;;;;;5033807;28;20570;-66
2020/12/09 02:37:53;;;;;;;3.00;2.70;;;2.70;99.90;;;;;;5033738;28;20408;-65
2020/12/09 02:40:22;;;;;;;0.50;0.50;;;2.70;99.90;;;;;;5032242;28;20541;-64
2020/12/09 02:42:48;;;;;;;0.40;0.40;;;2.70;99.90;;;;;;5053600;28;20550;-65
2020/12/09 02:45:14;;;;;;;0.50;0.50;;;2.70;99.90;;;;;;5035952;28;20170;-64
2020/12/09 02:47:40;;;;;;;1.70;1.60;;;2.80;99.90;;;;;;5013782;28;20170;-65
2020/12/09 02:50:06;;;;;;;0.70;0.70;;;2.80;99.90;;;;;;5025951;28;20261;-65
2020/12/09 02:52:31;;;;;;;0.83;0.83;;;2.80;99.90;;;;;;5049493;28;20201;-65
2020/12/09 02:54:57;;;;;;;0.30;0.30;;;2.80;99.90;;;;;;5038139;28;20486;-64
2020/12/09 02:57:23;;;;;;;0.40;0.40;;;2.80;99.90;;;;;;5033476;28;20181;-67
2020/12/09 02:59:49;;;;;;;0.30;0.30;;;2.80;99.90;;;;;;5033061;28;20527;-64
2020/12/09 03:02:14;;;;;;;1.33;0.93;;;2.80;99.90;;;;;;5033005;28;20799;-64
2020/12/09 03:04:40;;;;;;;0.30;0.30;;;2.80;99.90;;;;;;5032667;28;20174;-65
2020/12/09 03:07:06;;;;;;;0.53;0.53;;;2.80;99.90;;;;;;5033269;28;20266;-64
2020/12/09 03:09:32;;;;;;;3.00;2.80;;;2.80;99.90;;;;;;5032824;28;20174;-64
2020/12/09 03:11:58;;;;;;;0.30;0.30;;;2.80;99.90;;;;;;5032489;28;20464;-65
2020/12/09 03:14:23;;;;;;;2.00;1.30;;;2.80;99.90;;;;;;5033266;28;20162;-65
2020/12/09 03:16:49;;;;;;;0.30;0.30;;;2.80;99.90;;;;;;5043575;28;20177;-66
2020/12/09 03:19:15;;;;;;;0.30;0.30;;;2.80;99.90;;;;;;5033186;28;20231;-65
2020/12/09 03:21:42;;;;;;;0.30;0.30;;;2.80;99.90;;;;;;5043855;28;20436;-64
2020/12/09 03:24:09;;;;;;;0.30;0.30;;;2.80;99.90;;;;;;5046977;28;20665;-65
2020/12/09 03:26:35;;;;;;;0.38;0.38;;;2.70;99.90;;;;;;5032997;28;20215;-65
2020/12/09 03:29:00;;;;;;;0.30;0.30;;;2.70;99.90;;;;;;5032704;28;20267;-64
2020/12/09 03:31:27;;;;;;;0.30;0.30;;;2.70;99.90;;;;;;5040859;28;20255;-65
2020/12/09 03:33:52;;;;;;;0.95;0.77;;;2.70;99.90;;;;;;5052084;28;20177;-63
2020/12/09 03:36:18;;;;;;;0.30;0.30;;;2.70;99.90;;;;;;5032533;28;20178;-63
2020/12/09 03:38:44;;;;;;;0.30;0.30;;;2.70;99.90;;;;;;5035369;28;20211;-63
2020/12/09 03:41:09;;;;;;;0.30;0.30;;;2.70;99.90;;;;;;5035909;28;20288;-62
2020/12/09 03:43:35;;;;;;;0.30;0.30;;;2.70;99.90;;;;;;5036080;28;20193;-64
2020/12/09 03:46:00;;;;;;;0.30;0.30;;;2.60;99.90;;;;;;5040939;28;20699;-63
2020/12/09 03:48:26;;;;;;;0.63;0.63;;;2.60;99.90;;;;;;5054830;28;20219;-63
2020/12/09 03:50:52;;;;;;;0.30;0.30;;;2.60;99.90;;;;;;5041103;28;20199;-63
2020/12/09 03:53:18;;;;;;;0.40;0.40;;;2.70;99.90;;;;;;5042371;28;20441;-63
2020/12/09 03:55:43;;;;;;;0.30;0.30;;;2.60;99.90;;;;;;5035989;28;20181;-63
2020/12/09 03:58:09;;;;;;;0.30;0.30;;;2.60;99.90;;;;;;5035457;28;20178;-63
2020/12/09 04:00:35;;;;;;;0.30;0.30;;;2.60;99.90;;;;;;5039012;28;20185;-64
2020/12/09 04:03:00;;;;;;;1.63;1.57;;;2.60;99.90;;;;;;5041468;28;20591;-64
2020/12/09 04:05:26;;;;;;;0.30;0.30;;;2.60;99.90;;;;;;5037200;28;20182;-64
2020/12/09 04:07:52;;;;;;;0.40;0.40;;;2.50;99.90;;;;;;5052571;28;20215;-63
2020/12/09 04:10:17;;;;;;;1.60;1.50;;;2.50;99.90;;;;;;5035265;28;20192;-63
2020/12/09 04:12:43;;;;;;;1.73;1.63;;;2.50;99.90;;;;;;5034692;28;20205;-63
2020/12/09 04:15:10;;;;;;;0.30;0.30;;;2.40;99.90;;;;;;5035648;28;20499;-65
2020/12/09 04:17:35;;;;;;;0.40;0.40;;;2.40;99.90;;;;;;5053848;28;20173;-65
2020/12/09 04:20:01;;;;;;;0.43;0.43;;;2.40;99.90;;;;;;5055061;28;20585;-63
2020/12/09 04:22:27;;;;;;;0.30;0.30;;;2.40;99.90;;;;;;5053481;28;20631;-63
2020/12/09 04:24:53;;;;;;;2.03;1.90;;;2.40;99.90;;;;;;5037876;28;20261;-63
2020/12/09 04:27:18;;;;;;;0.43;0.43;;;2.40;99.90;;;;;;5035620;28;20232;-63
2020/12/09 04:29:44;;;;;;;2.93;2.73;;;2.40;99.90;;;;;;5034144;28;20508;-63
2020/12/09 04:32:11;;;;;;;0.37;0.37;;;2.40;99.90;;;;;;5047991;28;20643;-62
2020/12/09 04:34:37;;;;;;;0.30;0.30;;;2.40;99.90;;;;;;5054834;28;20173;-63
2020/12/09 04:37:02;;;;;;;0.40;0.40;;;2.40;99.90;;;;;;5041123;28;20233;-63
2020/12/09 04:39:28;;;;;;;0.30;0.30;;;2.40;99.90;;;;;;5034875;28;20180;-63
2020/12/09 04:41:54;;;;;;;0.40;0.40;;;2.50;99.90;;;;;;5034754;28;20783;-62
2020/12/09 04:44:20;;;;;;;0.40;0.40;;;2.40;99.90;;;;;;5033906;28;20456;-64
2020/12/09 04:46:48;;;;;;;0.30;0.30;;;2.40;99.90;;;;;;5047663;28;20475;-63
2020/12/09 04:49:18;;;;;;;0.55;0.55;;;2.50;99.90;;;;;;5054157;28;20404;-64
2020/12/09 04:52:11;;;;;;;0.30;0.30;;;2.40;99.90;;;;;;5041637;28;20206;-64
2020/12/09 04:54:39;;;;;;;0.40;0.40;;;2.50;99.90;;;;;;5034237;28;20182;-63
2020/12/09 04:57:31;;;;;;;0.30;0.30;;;2.50;99.90;;;;;;5050364;28;20678;-64
2020/12/09 05:00:04;;;;;;;1.73;1.73;;;2.50;99.90;;;;;;5021526;28;20190;-64
2020/12/09 05:02:46;;;;;;;0.30;0.30;;;2.50;99.90;;;;;;5039924;28;20221;-64
2020/12/09 05:05:23;;;;;;;0.30;0.30;;;2.50;99.90;;;;;;5034155;28;20174;-63
2020/12/09 05:07:51;;;;;;;1.38;1.38;;;2.50;99.90;;;;;;5015553;28;20194;-63
2020/12/09 05:10:22;;;;;;;0.30;0.30;;;2.50;99.90;;;;;;5033900;28;20747;-63
2020/12/09 05:12:50;;;;;;;0.30;0.30;;;2.50;99.90;;;;;;5018734;28;20198;-63
2020/12/09 05:15:21;;;;;;;0.60;0.60;;;2.50;99.90;;;;;;5034204;28;20177;-63
2020/12/09 05:18:00;;;;;;;0.40;0.40;;;2.50;99.90;;;;;;5053308;28;20265;-63
2020/12/09 05:20:27;;;;;;;0.40;0.40;;;2.50;99.90;;;;;;5033556;28;20286;-64
2020/12/09 05:22:55;;;;;;;1.17;1.10;;;2.60;99.90;;;;;;5052745;28;20197;-64
2020/12/09 05:25:23;;;;;;;0.40;0.40;;;2.60;99.90;;;;;;5032149;28;20652;-64
2020/12/09 05:27:48;;;;;;;0.30;0.30;;;2.60;99.90;;;;;;5032884;28;20640;-64
2020/12/09 05:30:47;;;;;;;2.00;1.27;;;2.70;99.90;;;;;;5032104;28;20175;-64
2020/12/09 05:33:17;;;;;;;0.40;0.40;;;2.70;99.90;;;;;;5023850;28;20171;-63
2020/12/09 05:35:53;;;;;;;8.07;2.05;;;2.70;99.90;;;;;;5034887;28;20193;-63
2020/12/09 05:38:19;;;;;;;0.30;0.30;;;2.70;99.90;;;;;;5034018;28;20220;-63
2020/12/09 05:40:46;;;;;;;1.40;1.37;;;2.70;99.90;;;;;;5033797;28;20536;-63
2020/12/09 05:43:13;;;;;;;0.30;0.30;;;2.70;99.90;;;;;;5033405;28;20225;-63
2020/12/09 05:45:39;;;;;;;0.52;0.52;;;2.70;99.90;;;;;;5033589;28;20173;-63
2020/12/09 05:48:11;;;;;;;0.50;0.50;;;2.70;99.90;;;;;;5052584;28;20272;-63
2020/12/09 05:50:56;;;;;;;0.98;0.98;;;2.80;99.90;;;;;;5041983;28;20552;-63
2020/12/09 05:53:23;;;;;;;0.93;0.93;;;2.80;99.90;;;;;;5033630;28;20247;-64
2020/12/09 05:55:56;;;;;;;0.50;0.50;;;2.70;99.90;;;;;;5045261;28;20177;-63
2020/12/09 05:58:26;;;;;;;0.30;0.30;;;2.70;99.90;;;;;;5033412;28;20182;-63
2020/12/09 06:01:09;;;;;;;0.30;0.30;;;2.70;99.90;;;;;;5037289;28;20649;-63
2020/12/09 06:03:37;;;;;;;0.30;0.30;;;2.60;99.90;;;;;;5033427;28;20178;-63
2020/12/09 06:06:14;;;;;;;1.70;1.65;;;2.60;99.90;;;;;;5033293;28;20247;-62
2020/12/09 06:08:50;;;;;;;0.30;0.30;;;2.60;99.90;;;;;;5033719;28;20237;-62
2020/12/09 06:11:18;;;;;;;0.30;0.30;;;2.60;99.90;;;;;;5047442;28;20235;-62
2020/12/09 06:13:44;;;;;;;0.30;0.30;;;2.70;99.90;;;;;;5045271;28;20521;-63
2020/12/09 06:16:11;;;;;;;0.40;0.40;;;2.70;99.90;;;;;;5034993;28;20174;-63
2020/12/09 06:18:38;;;;;;;0.93;0.93;;;2.70;99.90;;;;;;5033061;28;20201;-63
2020/12/09 06:21:05;;;;;;;0.40;0.40;;;2.70;99.90;;;;;;5033010;28;20585;-63
2020/12/09 06:23:32;;;;;;;1.02;0.90;;;2.70;99.90;;;;;;5033488;28;20289;-63
2020/12/09 06:25:59;;;;;;;0.38;0.38;;;2.70;99.90;;;;;;5034531;28;20181;-64
2020/12/09 06:28:28;;;;;;;1.67;1.58;;;2.80;99.90;;;;;;5032766;28;20174;-63
2020/12/09 06:30:56;;;;;;;0.40;0.40;;;2.80;99.90;;;;;;5043656;28;20201;-63
2020/12/09 06:33:35;;;;;;;0.82;0.75;;;2.80;99.90;;;;;;5040714;28;20919;-63
2020/12/09 06:36:20;;;;;;;0.50;0.50;;;2.80;99.90;;;;;;5032995;28;20177;-64
2020/12/09 06:39:04;;;;;;;0.30;0.30;;;2.80;99.90;;;;;;5033136;28;20170;-64
2020/12/09 06:41:33;;;;;;;0.40;0.40;;;2.80;99.90;;;;;;5040390;28;20200;-63
2020/12/09 06:44:07;;;;;;;0.40;0.40;;;2.90;99.90;;;;;;5032730;28;20269;-63
2020/12/09 06:46:38;;;;;;;0.50;0.50;;;2.90;99.90;;;;;;5049445;28;20242;-63
2020/12/09 06:49:05;;;;;;;2.95;2.25;;;2.80;99.90;;;;;;5042171;28;20178;-63
2020/12/09 06:51:40;;;;;;;1.45;1.35;;;2.90;99.90;;;;;;5032736;28;20206;-62
2020/12/09 06:54:14;;;;;;;0.50;0.50;;;2.90;99.90;;;;;;5032968;28;20189;-63
2020/12/09 06:56:40;;;;;;;3.80;1.85;;;2.90;99.90;;;;;;5033217;28;20663;-63
2020/12/09 06:59:25;;;;;;;0.30;0.30;;;3.00;99.90;;;;;;5032701;28;20587;-63
2020/12/09 07:02:05;;;;;;;0.30;0.30;;;3.00;99.90;;;;;;5050237;28;20193;-63
2020/12/09 07:04:52;;;;;;;0.40;0.40;;;3.00;99.90;;;;;;5052960;28;20170;-64
2020/12/09 07:07:48;;;;;;;0.30;0.30;;;3.00;99.90;;;;;;5026744;28;20177;-63
2020/12/09 07:10:21;;;;;;;0.40;0.40;;;3.00;99.90;;;;;;5029003;28;20264;-64
2020/12/09 07:13:00;;;;;;;0.30;0.30;;;3.00;99.90;;;;;;5038413;28;20541;-64
2020/12/09 07:15:27;;;;;;;0.40;0.40;;;3.00;99.90;;;;;;5043616;28;20536;-68
2020/12/09 07:17:53;;;;;;;0.45;0.45;;;3.00;99.90;;;;;;5049205;28;20169;-68
2020/12/09 07:20:19;;;;;;;6.03;5.43;;;3.00;99.90;;;;;;5040850;28;20532;-65
2020/12/09 07:22:45;;;;;;;1.60;1.60;;;3.00;99.90;;;;;;5036232;28;20284;-63
2020/12/09 07:25:10;;;;;;;0.40;0.40;;;3.10;99.90;;;;;;5049647;28;20181;-65
2020/12/09 07:27:38;;;;;;;0.30;0.30;;;3.10;99.90;;;;;;5035796;28;20253;-64
2020/12/09 07:30:07;;;;;;;0.30;0.30;;;3.10;99.90;;;;;;5035385;28;20174;-64
2020/12/09 07:32:34;;;;;;;0.30;0.30;;;3.10;99.90;;;;;;5036337;28;20198;-64
2020/12/09 07:35:03;;;;;;;0.30;0.30;;;3.10;99.90;;;;;;5035949;28;20182;-63
2020/12/09 07:37:32;;;;;;;0.35;0.35;;;3.10;99.90;;;;;;5034448;28;20166;-64
2020/12/09 07:40:01;;;;;;;0.30;0.30;;;3.10;99.90;;;;;;5035276;28;20650;-63
2020/12/09 07:42:27;;;;;;;2.65;2.55;;;3.10;99.90;;;;;;5036162;28;20186;-63
2020/12/09 07:44:53;;;;;;;2.10;2.00;;;3.10;99.90;;;;;;5035965;28;20257;-63
2020/12/09 07:47:29;;;;;;;0.30;0.30;;;3.10;99.90;;;;;;5035773;28;20182;-62
2020/12/09 07:50:05;;;;;;;0.50;0.50;;;3.10;99.90;;;;;;5035755;28;20249;-63
2020/12/09 07:52:34;;;;;;;0.30;0.30;;;3.20;99.90;;;;;;5035642;28;20216;-63
2020/12/09 07:55:12;;;;;;;0.30;0.30;;;3.20;99.90;;;;;;5016762;28;20182;-62
2020/12/09 07:57:39;;;;;;;0.30;0.30;;;3.30;99.90;;;;;;5015900;28;20170;-63
2020/12/09 08:00:12;;;;;;;0.30;0.30;;;3.30;99.90;;;;;;5015810;28;20163;-63
2020/12/09 08:02:47;;;;;;;0.55;0.55;;;3.30;99.90;;;;;;5014397;28;20183;-63
2020/12/09 08:05:29;;;;;;;1.05;1.05;;;3.30;99.90;;;;;;5033282;28;20261;-63
2020/12/09 08:07:56;;;;;;;0.30;0.30;;;3.30;99.90;;;;;;5035861;28;20224;-63
2020/12/09 08:10:33;;;;;;;1.02;1.00;;;3.30;99.90;;;;;;5033912;28;20170;-61
2020/12/09 08:13:01;;;;;;;0.40;0.40;;;3.30;99.90;;;;;;5035703;28;20675;-63
2020/12/09 08:15:27;;;;;;;0.93;0.93;;;3.40;99.90;;;;;;5034883;28;20202;-63
2020/12/09 08:17:53;;;;;;;0.67;0.67;;;3.50;99.90;;;;;;5034836;28;20205;-63
2020/12/09 08:20:18;;;;;;;1.60;1.50;;;3.50;99.90;;;;;;5034893;28;20178;-63
2020/12/09 08:23:02;;;;;;;0.30;0.30;;;3.40;99.90;;;;;;5033929;28;20194;-64
2020/12/09 08:25:32;;;;;;;0.30;0.30;;;3.50;99.90;;;;;;5044195;28;20182;-64
2020/12/09 08:28:06;;;;;;;0.30;0.30;;;3.40;99.90;;;;;;5040640;28;20166;-63
2020/12/09 08:30:32;;;;;;;0.30;0.30;;;3.50;99.90;;;;;;5034079;28;20174;-66
2020/12/09 08:33:10;;;;;;;0.40;0.40;;;3.50;99.90;;;;;;5037000;28;20205;-65
2020/12/09 08:35:57;;;;;;;0.68;0.68;;;3.50;99.90;;;;;;5035184;28;20166;-66
2020/12/09 08:38:26;;;;;;;0.30;0.30;;;3.60;99.90;;;;;;5022680;28;20161;-64
2020/12/09 08:40:54;;;;;;;0.30;0.30;;;3.50;99.90;;;;;;5051170;28;20178;-65
2020/12/09 08:43:28;;;;;;;0.30;0.30;;;3.60;99.90;;;;;;5039553;28;20197;-65
2020/12/09 08:45:55;;;;;;;0.30;0.30;;;3.40;99.90;;;;;;5034196;28;20544;-65
2020/12/09 08:48:21;;;;;;;0.30;0.30;;;3.50;99.90;;;;;;5054044;28;20181;-64
2020/12/09 08:50:48;;;;;;;0.32;0.32;;;3.50;99.90;;;;;;5054155;28;20197;-62
2020/12/09 08:53:15;;;;;;;0.30;0.30;;;3.60;99.90;;;;;;5035093;28;20261;-65
2020/12/09 08:55:42;;;;;;;1.15;1.15;;;3.60;99.90;;;;;;5034083;28;20176;-64
2020/12/09 08:58:12;;;;;;;0.50;0.50;;;3.50;99.90;;;;;;5032617;28;20158;-64
2020/12/09 09:00:39;;;;;;;0.30;0.30;;;3.60;99.90;;;;;;5039530;28;20231;-65
2020/12/09 09:03:07;;;;;;;0.50;0.50;;;3.50;99.90;;;;;;5033153;28;20202;-66
2020/12/09 09:05:32;;;;;;;0.40;0.40;;;3.50;99.90;;;;;;5035231;28;20240;-64
2020/12/09 09:07:58;;;;;;;0.40;0.40;;;3.50;99.90;;;;;;5040340;28;20186;-65
2020/12/09 09:10:24;;;;;;;0.80;0.80;;;3.50;99.90;;;;;;5050745;28;20269;-67
2020/12/09 09:12:50;;;;;;;0.60;0.60;;;3.60;99.90;;;;;;5032334;28;20255;-67
2020/12/09 09:15:16;;;;;;;2.10;2.00;;;3.60;99.90;;;;;;5034348;28;20595;-67
2020/12/09 09:17:42;;;;;;;0.60;0.50;;;3.60;99.90;;;;;;5034253;28;20768;-68
2020/12/09 09:20:08;;;;;;;1.00;1.00;;;3.60;99.90;;;;;;5034048;28;20198;-72
2020/12/09 09:22:34;;;;;;;0.68;0.68;;;3.70;99.90;;;;;;5053147;28;20197;-67
2020/12/09 09:24:59;;;;;;;0.83;0.83;;;3.70;99.90;;;;;;5046871;28;20181;-68
2020/12/09 09:27:25;;;;;;;0.30;0.20;;;3.70;99.90;;;;;;5051101;28;20188;-68
2020/12/09 09:29:52;;;;;;;0.40;0.40;;;3.70;99.90;;;;;;5042589;28;20425;-68
2020/12/09 09:32:17;;;;;;;0.77;0.77;;;3.70;99.90;;;;;;5033044;28;20208;-68
2020/12/09 09:34:44;;;;;;;0.30;0.30;;;3.70;99.90;;;;;;5033359;28;20162;-68
2020/12/09 09:37:10;;;;;;;0.40;0.40;;;3.70;99.90;;;;;;5033893;28;20185;-68
2020/12/09 09:39:36;;;;;;;0.30;0.30;;;3.80;99.90;;;;;;5033878;28;20165;-68
2020/12/09 09:42:04;;;;;;;0.95;0.95;;;3.80;99.90;;;;;;5036649;28;20197;-67
2020/12/09 09:44:30;;;;;;;0.30;0.30;;;3.80;99.90;;;;;;5048692;28;20173;-68
2020/12/09 09:46:57;;;;;;;0.30;0.30;;;3.80;99.90;;;;;;5037779;28;20248;-67
2020/12/09 09:49:23;;;;;;;0.40;0.40;;;3.80;99.90;;;;;;5033515;28;20166;-68
2020/12/09 09:51:50;;;;;;;0.83;0.83;;;3.80;99.90;;;;;;5032793;28;20603;-67
2020/12/09 09:54:16;;;;;;;0.93;0.93;;;3.80;99.90;;;;;;5033334;28;20858;-67
2020/12/09 09:56:42;;;;;;;0.97;0.97;;;3.90;99.90;;;;;;5033572;28;20198;-68
2020/12/09 09:59:08;;;;;;;3.03;2.92;;;3.80;99.90;;;;;;5032020;28;20201;-68
2020/12/09 10:01:33;;;;;;;0.40;0.40;;;3.70;99.90;;;;;;5032600;28;20226;-68
2020/12/09 10:03:59;;;;;;;0.30;0.30;;;3.80;99.90;;;;;;5033331;28;20174;-68
2020/12/09 10:06:25;;;;;;;0.60;0.60;;;3.80;99.90;;;;;;5033038;28;20650;-67
2020/12/09 10:08:51;;;;;;;0.30;0.30;;;3.70;99.90;;;;;;5033107;28;20180;-67
2020/12/09 10:11:17;;;;;;;0.60;0.60;;;3.70;99.90;;;;;;5033174;28;20229;-64
2020/12/09 10:13:43;;;;;;;0.50;0.50;;;3.80;99.90;;;;;;5032949;28;20205;-65
2020/12/09 10:16:08;;;;;;;0.77;0.77;;;3.80;99.90;;;;;;5034610;28;20256;-66
2020/12/09 10:18:34;;;;;;;0.30;0.30;;;3.80;99.90;;;;;;5033068;28;20169;-67
2020/12/09 10:21:00;;;;;;;0.30;0.30;;;3.80;99.90;;;;;;5044808;28;20235;-66
2020/12/09 10:23:26;;;;;;;0.37;0.37;;;3.80;99.90;;;;;;5042569;28;20178;-67
2020/12/09 10:25:51;;;;;;;0.30;0.30;;;3.80;99.90;;;;;;5037045;28;20208;-68
2020/12/09 10:28:17;;;;;;;0.83;0.83;;;3.80;99.90;;;;;;5034004;28;20656;-69
2020/12/09 10:30:46;;;;;;;0.30;0.30;;;3.80;99.90;;;;;;5034649;28;20282;-65
2020/12/09 10:33:13;;;;;;;0.35;0.35;;;3.80;99.90;;;;;;5033116;28;20174;-66
2020/12/09 10:35:42;;;;;;;0.70;0.70;;;3.80;99.90;;;;;;5047752;28;20166;-66
2020/12/09 10:38:08;;;;;;;0.30;0.30;;;3.70;99.90;;;;;;5040346;28;20506;-68
2020/12/09 10:40:33;;;;;;;0.40;0.40;;;3.80;99.90;;;;;;5033413;28;20312;-68
2020/12/09 10:42:59;;;;;;;0.50;0.50;;;3.80;99.90;;;;;;5032943;28;20198;-67
2020/12/09 10:45:25;;;;;;;0.30;0.30;;;3.80;99.90;;;;;;5032833;28;20552;-66
2020/12/09 10:47:51;;;;;;;0.30;0.30;;;3.70;99.90;;;;;;5053399;28;20428;-67
2020/12/09 10:50:16;;;;;;;0.30;0.30;;;3.70;99.90;;;;;;5047532;28;20216;-66
2020/12/09 10:52:42;;;;;;;0.30;0.30;;;3.80;99.90;;;;;;5037667;28;20244;-67
2020/12/09 10:55:07;;;;;;;1.13;1.13;;;3.80;99.90;;;;;;5050008;28;20174;-68
2020/12/09 10:57:33;;;;;;;0.30;0.30;;;3.80;99.90;;;;;;5045554;28;20533;-69
2020/12/09 10:59:59;;;;;;;1.07;1.00;;;3.80;99.90;;;;;;5039098;28;20206;-64
2020/12/09 11:02:25;;;;;;;0.33;0.33;;;3.80;99.90;;;;;;5036325;28;20452;-68
2020/12/09 11:04:50;;;;;;;0.30;0.27;;;3.70;99.90;;;;;;5039288;28;20200;-65
2020/12/09 11:07:16;;;;;;;0.30;0.30;;;3.70;99.90;;;;;;5036828;28;20192;-67
2020/12/09 11:09:42;;;;;;;0.30;0.30;;;3.70;99.90;;;;;;5036426;28;20822;-66
2020/12/09 11:12:08;;;;;;;0.85;0.85;;;3.60;99.90;;;;;;5036604;28;20209;-65
2020/12/09 11:14:35;;;;;;;0.30;0.30;;;3.60;99.90;;;;;;5036666;28;20193;-68
2020/12/09 11:17:02;;;;;;;0.30;0.30;;;3.60;99.90;;;;;;5036487;28;20166;-68
2020/12/09 11:19:28;;;;;;;0.30;0.30;;;3.60;99.90;;;;;;5036528;28;20177;-67
2020/12/09 11:21:53;;;;;;;0.40;0.40;;;3.60;99.90;;;;;;5036235;28;20556;-67
2020/12/09 11:24:20;;;;;;;1.30;1.27;;;3.70;99.90;;;;;;5035366;28;20619;-65
2020/12/09 11:26:46;;;;;;;0.40;0.40;;;3.70;99.90;;;;;;5036206;28;20170;-66
2020/12/09 11:29:12;;;;;;;0.40;0.40;;;3.80;99.90;;;;;;5036189;28;20181;-67
2020/12/09 11:31:38;;;;;;;1.70;1.70;;;3.80;99.90;;;;;;5035914;28;20217;-67
2020/12/09 11:34:05;;;;;;;0.30;0.30;;;3.70;99.90;;;;;;5036204;28;20158;-67
2020/12/09 11:36:31;;;;;;;0.57;0.57;;;3.80;99.90;;;;;;5036250;28;20245;-67
2020/12/09 11:38:57;;;;;;;0.30;0.30;;;3.70;99.90;;;;;;5036405;28;20202;-66
2020/12/09 11:41:28;;;;;;;0.60;0.60;;;3.70;99.90;;;;;;5035625;28;20198;-67
2020/12/09 11:43:55;;;;;;;0.30;0.30;;;3.70;99.90;;;;;;5036231;28;20170;-67
2020/12/09 11:46:22;;;;;;;0.30;0.30;;;3.80;99.90;;;;;;5055477;28;20624;-67
2020/12/09 11:48:48;;;;;;;0.93;0.93;;;3.90;99.90;;;;;;5048568;28;20268;-66
2020/12/09 11:51:14;;;;;;;0.30;0.30;;;3.90;99.90;;;;;;5044493;28;20604;-66
2020/12/09 11:53:41;;;;;;;1.05;1.05;;;3.90;99.90;;;;;;5046589;28;20269;-65
2020/12/09 11:56:07;;;;;;;0.40;0.40;;;3.90;99.90;;;;;;5049967;28;20173;-67
2020/12/09 11:58:33;;;;;;;0.40;0.40;;;4.00;99.90;;;;;;5053838;28;20165;-64
2020/12/09 12:00:58;;;;;;;0.40;0.40;;;3.90;99.90;;;;;;5042335;28;20174;-68
2020/12/09 12:03:24;;;;;;;0.30;0.30;;;3.90;99.90;;;;;;5034987;28;20520;-65
2020/12/09 12:05:53;;;;;;;0.30;0.30;;;4.00;99.90;;;;;;5047465;28;20170;-66
2020/12/09 12:08:19;;;;;;;0.30;0.30;;;3.90;99.90;;;;;;5055369;28;20169;-66
2020/12/09 12:10:45;;;;;;;0.30;0.30;;;3.90;99.90;;;;;;5054819;28;20551;-66
2020/12/09 12:13:10;;;;;;;0.30;0.30;;;3.90;99.90;;;;;;5054841;28;20195;-67
2020/12/09 12:15:36;;;;;;;0.30;0.30;;;3.90;99.90;;;;;;5055506;28;20685;-67
2020/12/09 12:18:02;;;;;;;0.40;0.40;;;3.90;99.90;;;;;;5043263;28;20174;-66
2020/12/09 12:20:27;;;;;;;1.00;1.00;;;4.00;99.90;;;;;;5035362;28;20166;-68
2020/12/09 12:22:53;;;;;;;1.00;1.00;;;4.00;99.90;;;;;;5035237;28;20201;-65
2020/12/09 12:25:19;;;;;;;0.30;0.30;;;4.00;99.90;;;;;;5035091;28;20189;-63
2020/12/09 12:27:45;;;;;;;1.70;1.17;;;3.90;99.90;;;;;;5035504;28;20170;-65
2020/12/09 12:30:13;;;;;;;0.50;0.50;;;4.00;99.90;;;;;;5034143;28;20180;-65
2020/12/09 12:32:39;;;;;;;0.40;0.40;;;4.00;99.90;;;;;;5035807;28;20198;-64
2020/12/09 12:35:05;;;;;;;0.40;0.40;;;3.90;99.90;;;;;;5035832;28;20169;-65
2020/12/09 12:37:31;;;;;;;0.30;0.30;;;3.90;99.90;;;;;;5035466;28;20525;-65
2020/12/09 12:39:57;;;;;;;0.60;0.60;;;3.90;99.90;;;;;;5035125;28;20810;-65
2020/12/09 12:42:23;;;;;;;0.30;0.30;;;3.90;99.90;;;;;;5035272;28;20190;-66
2020/12/09 12:44:49;;;;;;;0.40;0.40;;;3.90;99.90;;;;;;5035618;28;20931;-66
2020/12/09 12:47:14;;;;;;;0.87;0.87;;;3.80;99.90;;;;;;5034728;28;20178;-66
2020/12/09 12:49:42;;;;;;;0.30;0.30;;;3.90;99.90;;;;;;5035796;28;20427;-66
2020/12/09 12:52:11;;;;;;;0.35;0.35;;;3.90;99.90;;;;;;5035154;28;20228;-65
2020/12/09 12:54:37;;;;;;;0.30;0.30;;;3.90;99.90;;;;;;5040663;28;20192;-66
2020/12/09 12:57:03;;;;;;;0.30;0.30;;;3.90;99.90;;;;;;5054666;28;20173;-66
2020/12/09 12:59:29;;;;;;;0.30;0.30;;;3.90;99.90;;;;;;5039167;28;20951;-66
2020/12/09 13:01:59;;;;;;;0.30;0.30;;;4.00;99.90;;;;;;5036119;28;20476;-65
2020/12/09 13:04:29;;;;;;;0.35;0.35;;;4.00;99.90;;;;;;5034500;28;20181;-64